General Jose Antonio Anzoategui International Airport


Codes: SVBC/BLA
Name: General Jose Antonio Anzoategui International Airport
City: Barcelona
Country: Venezuela
Elevation: 26 ft.

Photos at General Jose Antonio Anzoategui International Airport


   Photos courtesy of SpottingLog. You can add your own sightings and photos by signing up for a free trial today.



No photos found.

Weather at General Jose Antonio Anzoategui International Airport


Time (UTC)DescriptionTempratureWindCloud coverageVisibilityPressureHumidity
21-Jun-2024 12:00Light Rain25°C2 mph, W75%10000m1012hPa93%
21-Jun-2024 15:00Light Rain28°C4 mph, NW76%10000m1012hPa79%
21-Jun-2024 18:00Light Rain30°C7 mph, NW89%10000m1010hPa69%
21-Jun-2024 21:00Light Rain27°C7 mph, N92%10000m1010hPa79%
22-Jun-2024 00:00Light Rain26°C7 mph, NE92%10000m1012hPa85%
22-Jun-2024 03:00Overcast Clouds25°C2 mph, NE100%10000m1013hPa91%
22-Jun-2024 06:00Overcast Clouds25°C2 mph, S91%10000m1011hPa90%
22-Jun-2024 09:00Overcast Clouds24°C4 mph, SW100%10000m1012hPa90%
22-Jun-2024 12:00Overcast Clouds26°C4 mph, SW100%10000m1013hPa81%
22-Jun-2024 15:00Overcast Clouds29°C4 mph, SW100%10000m1013hPa67%
22-Jun-2024 18:00Overcast Clouds30°C9 mph, SW100%10000m1011hPa65%
22-Jun-2024 21:00Light Rain28°C7 mph, NE100%10000m1009hPa74%
23-Jun-2024 00:00Light Rain25°C2 mph, NE100%10000m1011hPa91%
23-Jun-2024 03:00Light Rain25°C2 mph, S100%10000m1012hPa91%
23-Jun-2024 06:00Light Rain25°C7 mph, S100%10000m1011hPa93%
23-Jun-2024 09:00Light Rain24°C7 mph, S76%10000m1011hPa95%
23-Jun-2024 12:00Overcast Clouds25°C11 mph, SE90%10000m1012hPa88%
23-Jun-2024 15:00Light Rain26°C9 mph, S100%10000m1013hPa79%
23-Jun-2024 18:00Overcast Clouds28°C4 mph, SE100%10000m1012hPa70%
23-Jun-2024 21:00Overcast Clouds28°C7 mph, NE100%10000m1011hPa72%
24-Jun-2024 00:00Light Rain24°C2 mph, SE100%10000m1013hPa95%
24-Jun-2024 03:00Light Rain24°C4 mph, S100%10000m1014hPa93%
24-Jun-2024 06:00Light Rain24°C2 mph, S99%10000m1012hPa92%
24-Jun-2024 09:00Overcast Clouds24°C0 mph, W100%10000m1013hPa91%
24-Jun-2024 12:00Broken Clouds26°C4 mph, SW83%10000m1014hPa86%
24-Jun-2024 15:00Broken Clouds26°C2 mph, W56%10000m1015hPa80%
24-Jun-2024 18:00Light Rain29°C4 mph, N56%10000m1012hPa70%
24-Jun-2024 21:00Moderate Rain24°C2 mph, E95%10000m1012hPa95%
25-Jun-2024 00:00Light Rain24°C2 mph, SW95%10000m1014hPa92%
25-Jun-2024 03:00Overcast Clouds25°C2 mph, SW93%10000m1015hPa90%
25-Jun-2024 06:00Overcast Clouds24°C4 mph, SW97%10000m1013hPa92%
25-Jun-2024 09:00Broken Clouds24°C4 mph, S69%10000m1013hPa93%
25-Jun-2024 12:00Broken Clouds25°C7 mph, S75%10000m1015hPa91%
25-Jun-2024 15:00Light Rain25°C13 mph, S100%10000m1015hPa86%
25-Jun-2024 18:00Light Rain28°C11 mph, S100%10000m1013hPa70%
25-Jun-2024 21:00Light Rain28°C7 mph, SE90%9262m1013hPa75%
26-Jun-2024 00:00Light Rain25°C2 mph, S74%10000m1015hPa86%
26-Jun-2024 03:00Broken Clouds25°C4 mph, S82%10000m1016hPa87%
26-Jun-2024 06:00Overcast Clouds24°C4 mph, S87%10000m1015hPa87%
26-Jun-2024 09:00Light Rain24°C2 mph, SE100%9922m1015hPa92%